createdAt,value
2018-07-12T00:01:39.375Z,63.13
2018-07-12T00:04:05.637Z,63.20
2018-07-12T00:06:31.865Z,62.65
2018-07-12T00:08:58.058Z,62.65
2018-07-12T00:11:24.289Z,62.80
2018-07-12T00:13:50.557Z,62.42
2018-07-12T00:16:16.824Z,62.89
2018-07-12T00:18:43.121Z,61.91
2018-07-12T00:21:09.484Z,62.23
2018-07-12T00:23:35.681Z,62.60
2018-07-12T00:26:01.927Z,62.49
2018-07-12T00:28:28.171Z,62.30
2018-07-12T00:30:54.427Z,62.89
2018-07-12T00:33:20.730Z,62.35
2018-07-12T00:35:47.297Z,62.65
2018-07-12T00:38:13.597Z,62.16
2018-07-12T00:40:39.798Z,62.22
2018-07-12T00:43:06.092Z,62.88
2018-07-12T00:45:32.320Z,63.00
2018-07-12T00:47:58.573Z,63.28
2018-07-12T00:50:24.777Z,63.25
2018-07-12T00:52:51.065Z,63.34
2018-07-12T00:55:17.315Z,63.08
2018-07-12T00:57:43.549Z,62.44
2018-07-12T01:00:09.828Z,62.10
2018-07-12T01:02:36.079Z,62.51
2018-07-12T01:05:02.558Z,62.71
2018-07-12T01:07:28.820Z,62.48
2018-07-12T01:09:55.083Z,62.52
2018-07-12T01:12:21.931Z,62.63
2018-07-12T01:14:48.646Z,62.69
2018-07-12T01:17:14.917Z,62.05
2018-07-12T01:19:42.216Z,62.43
2018-07-12T01:22:08.447Z,62.40
2018-07-12T01:24:34.722Z,61.78
2018-07-12T01:27:00.962Z,62.31
2018-07-12T01:29:27.267Z,62.61
2018-07-12T01:31:53.632Z,61.69
2018-07-12T01:34:19.861Z,61.80
2018-07-12T01:36:46.132Z,60.99
2018-07-12T01:39:12.685Z,61.10
2018-07-12T01:41:38.977Z,60.83
2018-07-12T01:44:05.379Z,60.82
2018-07-12T01:46:31.640Z,61.40
2018-07-12T01:48:57.925Z,60.85
2018-07-12T01:51:25.051Z,60.77
2018-07-12T01:53:51.267Z,61.11
2018-07-12T01:56:17.569Z,60.84
2018-07-12T01:58:44.164Z,60.58
2018-07-12T02:01:10.510Z,61.38
2018-07-12T02:03:37.179Z,61.45
2018-07-12T02:06:03.996Z,61.67
2018-07-12T02:08:31.589Z,60.86
2018-07-12T02:10:57.886Z,60.72
2018-07-12T02:13:27.955Z,60.23
2018-07-12T02:15:54.154Z,60.64
2018-07-12T02:18:21.235Z,60.09
2018-07-12T02:20:47.481Z,59.71
2018-07-12T02:23:15.735Z,60.42
2018-07-12T02:25:42.001Z,58.99
2018-07-12T02:28:10.064Z,58.95
2018-07-12T02:30:36.335Z,59.35
2018-07-12T02:33:02.649Z,59.17
2018-07-12T02:35:28.891Z,58.48
2018-07-12T02:37:55.154Z,58.64
2018-07-12T02:40:22.503Z,58.45
2018-07-12T02:42:48.724Z,59.21
2018-07-12T02:45:18.400Z,59.07
2018-07-12T02:47:44.639Z,59.53
2018-07-12T02:50:12.216Z,59.09
2018-07-12T02:52:38.488Z,59.34
2018-07-12T02:55:06.249Z,60.05
2018-07-12T02:57:32.482Z,59.30
2018-07-12T03:00:02.326Z,60.04
2018-07-12T03:02:28.603Z,60.09
2018-07-12T03:04:55.440Z,60.21
2018-07-12T03:07:21.761Z,59.69
2018-07-12T03:09:48.011Z,60.23
2018-07-12T03:12:14.310Z,60.80
2018-07-12T03:14:40.518Z,60.96
2018-07-12T03:17:07.474Z,60.80
2018-07-12T03:19:33.731Z,60.73
2018-07-12T03:22:03.841Z,60.40
2018-07-12T03:24:30.103Z,60.55
2018-07-12T03:26:57.875Z,60.76
2018-07-12T03:29:24.166Z,61.19
2018-07-12T03:31:51.143Z,61.44
2018-07-12T03:34:17.382Z,61.99
2018-07-12T03:36:47.630Z,62.00
2018-07-12T03:39:13.870Z,62.30
2018-07-12T03:41:40.886Z,63.35
2018-07-12T03:44:07.203Z,62.76
2018-07-12T03:46:33.473Z,63.23
2018-07-12T03:48:59.760Z,63.55
2018-07-12T03:51:25.975Z,63.21
2018-07-12T03:53:54.789Z,63.07
2018-07-12T03:56:21.084Z,62.72
2018-07-12T03:58:47.364Z,62.53
2018-07-12T04:01:13.846Z,63.62
2018-07-12T04:03:42.003Z,63.29
2018-07-12T04:06:08.240Z,63.33
2018-07-12T04:08:38.395Z,62.12
2018-07-12T04:11:04.712Z,63.46
2018-07-12T04:13:31.855Z,63.24
2018-07-12T04:15:58.117Z,63.67
2018-07-12T04:18:26.294Z,62.61
2018-07-12T04:20:52.522Z,62.48
2018-07-12T04:23:18.739Z,63.08
2018-07-12T04:25:44.942Z,63.03
2018-07-12T04:28:11.199Z,63.85
2018-07-12T04:30:38.439Z,63.41
2018-07-12T04:33:04.672Z,62.02
2018-07-12T04:35:32.784Z,61.43
2018-07-12T04:37:59.024Z,62.70
2018-07-12T04:40:27.218Z,62.26
2018-07-12T04:42:53.409Z,61.90
2018-07-12T04:45:23.294Z,61.77
2018-07-12T04:47:49.582Z,63.04
2018-07-12T04:50:17.134Z,63.02
2018-07-12T04:52:43.350Z,62.97
2018-07-12T04:55:11.552Z,62.57
2018-07-12T04:57:37.815Z,63.07
2018-07-12T05:00:03.993Z,62.98
2018-07-12T05:02:30.199Z,64.13
2018-07-12T05:04:56.448Z,63.89
2018-07-12T05:07:23.607Z,63.44
2018-07-12T05:09:49.823Z,62.55
2018-07-12T05:12:17.957Z,62.48
2018-07-12T05:14:45.284Z,61.50
2018-07-12T05:17:12.953Z,61.53
2018-07-12T05:19:39.266Z,61.94
2018-07-12T05:22:08.822Z,62.97
2018-07-12T05:24:35.045Z,62.81
2018-07-12T05:27:01.843Z,62.63
2018-07-12T05:29:28.076Z,62.23
2018-07-12T05:31:57.851Z,62.22
2018-07-12T05:34:24.034Z,62.71
2018-07-12T05:36:54.371Z,63.28
2018-07-12T05:39:21.687Z,63.70
2018-07-12T05:41:49.075Z,64.26
2018-07-12T05:44:16.764Z,64.62
2018-07-12T05:46:44.039Z,64.89
2018-07-12T05:49:11.299Z,66.09
2018-07-12T05:51:38.624Z,66.75
2018-07-12T05:54:06.131Z,67.02
2018-07-12T05:56:33.441Z,68.15
2018-07-12T05:59:00.760Z,67.84
2018-07-12T06:01:39.705Z,67.55
2018-07-12T06:04:07.036Z,68.41
2018-07-12T06:06:34.274Z,67.77
2018-07-12T06:09:01.707Z,67.58
2018-07-12T06:11:29.034Z,68.34
2018-07-12T06:13:56.321Z,68.16
2018-07-12T06:16:23.661Z,68.31
2018-07-12T06:18:50.948Z,68.29
2018-07-12T06:21:18.211Z,67.81
2018-07-12T06:23:45.572Z,67.49
2018-07-12T06:26:13.170Z,67.76
2018-07-12T06:28:40.565Z,67.95
2018-07-12T06:31:07.841Z,68.43
2018-07-12T06:33:35.102Z,68.13
2018-07-12T06:36:02.508Z,68.09
2018-07-12T06:38:29.837Z,67.47
2018-07-12T06:40:57.183Z,67.34
2018-07-12T06:43:24.566Z,67.46
2018-07-12T06:45:51.813Z,67.15
2018-07-12T06:48:19.039Z,67.83
2018-07-12T06:50:46.453Z,67.66
2018-07-12T06:53:13.826Z,68.29
2018-07-12T06:55:41.166Z,67.31
2018-07-12T06:58:08.457Z,67.15
2018-07-12T07:00:35.795Z,66.56
2018-07-12T07:03:03.268Z,66.61
2018-07-12T07:05:30.652Z,67.51
2018-07-12T07:07:58.047Z,67.59
2018-07-12T07:10:25.356Z,67.48
2018-07-12T07:12:52.622Z,67.51
2018-07-12T07:15:20.001Z,68.32
2018-07-12T07:17:47.265Z,67.43
2018-07-12T07:20:14.746Z,67.53
2018-07-12T07:22:42.078Z,67.45
2018-07-12T07:25:09.423Z,68.37
2018-07-12T07:27:36.676Z,67.87
2018-07-12T07:30:04.259Z,68.12
2018-07-12T07:32:31.564Z,68.01
2018-07-12T07:34:58.887Z,68.74
2018-07-12T07:37:26.192Z,68.17
2018-07-12T07:39:53.536Z,68.63
2018-07-12T07:42:20.780Z,72.35
2018-07-12T07:44:48.006Z,75.47
2018-07-12T07:47:15.270Z,75.81
2018-07-12T07:49:42.747Z,77.75
2018-07-12T07:52:10.076Z,77.97
2018-07-12T07:54:37.401Z,79.70
2018-07-12T07:57:05.005Z,79.94
2018-07-12T07:59:32.244Z,78.59
2018-07-12T08:01:59.539Z,79.31
2018-07-12T08:04:26.889Z,77.91
2018-07-12T08:06:54.363Z,79.57
2018-07-12T08:09:21.699Z,78.46
2018-07-12T08:11:49.102Z,77.43
2018-07-12T08:14:16.442Z,77.03
2018-07-12T08:16:43.759Z,75.68
2018-07-12T08:19:11.080Z,74.53
2018-07-12T08:21:38.347Z,72.80
2018-07-12T08:24:05.749Z,71.96
2018-07-12T08:26:33.028Z,70.59
2018-07-12T08:29:00.352Z,68.90
2018-07-12T08:31:27.716Z,67.76
2018-07-12T08:33:55.056Z,67.68
2018-07-12T08:36:22.419Z,69.00
2018-07-12T08:38:49.664Z,68.87
2018-07-12T08:41:16.998Z,67.26
2018-07-12T08:43:44.294Z,66.90
2018-07-12T08:46:11.599Z,65.96
2018-07-12T08:48:38.929Z,66.20
2018-07-12T08:51:06.330Z,63.81
2018-07-12T08:53:33.628Z,64.18
2018-07-12T08:56:00.972Z,63.74
2018-07-12T08:58:28.268Z,62.37
2018-07-12T09:00:55.628Z,62.11
2018-07-12T09:03:22.929Z,59.85
2018-07-12T09:05:50.309Z,58.44
2018-07-12T09:08:17.656Z,58.80
2018-07-12T09:10:44.951Z,58.01
2018-07-12T09:13:12.182Z,58.09
2018-07-12T09:15:39.455Z,56.89
2018-07-12T09:18:06.744Z,55.80
2018-07-12T09:20:34.188Z,53.57
2018-07-12T09:23:01.457Z,54.37
2018-07-12T09:25:28.847Z,52.35
2018-07-12T09:27:56.116Z,52.27
2018-07-12T09:30:23.400Z,50.38
2018-07-12T09:32:50.783Z,48.94
2018-07-12T09:35:17.990Z,48.83
2018-07-12T09:37:45.326Z,49.35
2018-07-12T09:40:12.709Z,50.37
2018-07-12T09:42:40.007Z,51.48
2018-07-12T09:45:07.498Z,50.60
2018-07-12T09:47:34.918Z,49.88
2018-07-12T09:50:02.249Z,48.54
2018-07-12T09:52:31.950Z,46.89
2018-07-12T09:54:59.391Z,46.05
2018-07-12T09:57:38.430Z,45.13
2018-07-12T10:00:05.753Z,42.75
2018-07-12T10:02:38.783Z,41.63
2018-07-12T10:05:10.987Z,40.57
2018-07-12T10:07:46.940Z,40.08
2018-07-12T10:10:14.253Z,40.82
2018-07-12T10:12:47.335Z,40.59
2018-07-12T10:15:19.211Z,37.39
2018-07-12T10:17:54.991Z,39.36
2018-07-12T10:20:22.372Z,41.14
2018-07-12T10:22:49.728Z,42.53
2018-07-12T10:25:17.039Z,41.56
2018-07-12T10:27:44.339Z,40.83
2018-07-12T10:30:11.711Z,42.97
2018-07-12T10:32:39.055Z,44.25
2018-07-12T10:35:06.341Z,44.55
2018-07-12T10:37:33.649Z,45.95
2018-07-12T10:40:00.893Z,45.96
2018-07-12T10:42:28.266Z,47.71
2018-07-12T10:44:55.645Z,45.40
2018-07-12T10:47:22.913Z,44.62
2018-07-12T10:49:50.302Z,44.82
2018-07-12T10:52:17.612Z,42.11
2018-07-12T10:54:44.820Z,42.90
2018-07-12T10:57:12.114Z,43.05
2018-07-12T10:59:39.451Z,42.46
2018-07-12T11:02:06.779Z,42.66
2018-07-12T11:04:34.088Z,43.14
2018-07-12T11:07:01.441Z,44.66
2018-07-12T11:09:28.696Z,44.50
2018-07-12T11:11:56.028Z,43.34
2018-07-12T11:14:23.476Z,41.45
2018-07-12T11:16:50.835Z,40.38
2018-07-12T11:19:18.135Z,41.60
2018-07-12T11:21:45.356Z,40.67
2018-07-12T11:24:12.738Z,38.87
2018-07-12T11:26:40.019Z,39.95
2018-07-12T11:29:07.282Z,38.03
2018-07-12T11:31:34.548Z,37.94
2018-07-12T11:34:01.926Z,38.50
2018-07-12T11:36:29.288Z,39.87
2018-07-12T11:38:56.539Z,38.84
2018-07-12T11:41:23.936Z,38.72
2018-07-12T11:43:51.238Z,37.88
2018-07-12T11:46:18.527Z,36.79
2018-07-12T11:48:46.016Z,36.52
2018-07-12T11:51:13.378Z,36.95
2018-07-12T11:53:40.748Z,39.39
2018-07-12T11:56:08.134Z,38.61
2018-07-12T11:58:35.486Z,39.67
2018-07-12T12:01:02.899Z,39.79
2018-07-12T12:03:30.657Z,39.99
2018-07-12T12:05:57.954Z,41.28
2018-07-12T12:08:25.699Z,42.32
2018-07-12T12:10:53.013Z,43.46
2018-07-12T12:13:20.322Z,43.51
2018-07-12T12:15:47.644Z,43.73
2018-07-12T12:18:14.965Z,42.83
2018-07-12T12:20:42.295Z,40.70
2018-07-12T12:23:09.566Z,38.47
2018-07-12T12:25:36.939Z,36.15
2018-07-12T12:28:04.412Z,35.70
2018-07-12T12:30:31.675Z,35.62
2018-07-12T12:32:59.046Z,35.66
2018-07-12T12:35:26.413Z,36.97
2018-07-12T12:37:53.843Z,35.33
2018-07-12T12:40:21.237Z,35.63
2018-07-12T12:42:48.654Z,34.51
2018-07-12T12:45:16.082Z,32.65
2018-07-12T12:47:43.464Z,33.67
2018-07-12T12:50:10.771Z,33.47
2018-07-12T12:52:38.072Z,33.75
2018-07-12T12:55:05.873Z,33.75
2018-07-12T12:57:33.162Z,33.69
2018-07-12T13:00:00.582Z,35.64
2018-07-12T13:02:27.919Z,37.13
2018-07-12T13:04:55.277Z,37.72
2018-07-12T13:07:22.546Z,39.29
2018-07-12T13:09:49.973Z,39.42
2018-07-12T13:12:17.264Z,41.10
2018-07-12T13:14:45.471Z,41.64
2018-07-12T13:17:12.799Z,41.67
2018-07-12T13:19:40.156Z,42.20
2018-07-12T13:22:07.497Z,41.97
2018-07-12T13:24:34.724Z,41.32
2018-07-12T13:27:02.123Z,41.50
2018-07-12T13:29:29.508Z,39.91
2018-07-12T13:31:56.897Z,38.09
2018-07-12T13:34:24.113Z,37.44
2018-07-12T13:36:51.639Z,36.31
2018-07-12T13:39:18.948Z,35.17
2018-07-12T13:41:46.219Z,33.71
2018-07-12T13:44:20.591Z,34.25
2018-07-12T13:46:49.076Z,33.52
2018-07-12T13:49:19.323Z,32.12
2018-07-12T13:51:49.748Z,32.75
2018-07-12T13:54:17.596Z,33.64
2018-07-12T13:56:45.129Z,32.49
2018-07-12T13:59:12.547Z,31.51
2018-07-12T14:01:39.865Z,31.93
2018-07-12T14:04:08.320Z,31.09
2018-07-12T14:06:35.787Z,31.36
2018-07-12T14:09:04.075Z,30.61
2018-07-12T14:11:31.339Z,30.68
2018-07-12T14:13:58.620Z,32.67
2018-07-12T14:16:25.940Z,35.13
2018-07-12T14:18:53.256Z,37.07
2018-07-12T14:21:20.603Z,37.64
2018-07-12T14:23:47.816Z,36.63
2018-07-12T14:26:15.057Z,37.25
2018-07-12T14:28:43.009Z,35.67
2018-07-12T14:31:10.324Z,33.54
2018-07-12T14:33:37.607Z,35.97
2018-07-12T14:36:05.024Z,34.44
2018-07-12T14:38:32.302Z,34.92
2018-07-12T14:40:59.646Z,34.51
2018-07-12T14:43:26.908Z,34.01
2018-07-12T14:45:54.264Z,35.04
2018-07-12T14:48:21.516Z,36.35
2018-07-12T14:50:48.757Z,36.90
2018-07-12T14:53:16.012Z,37.55
2018-07-12T14:55:43.300Z,37.82
2018-07-12T14:58:10.624Z,37.68
2018-07-12T15:00:37.927Z,35.59
2018-07-12T15:03:05.223Z,34.96
2018-07-12T15:05:32.471Z,34.22
2018-07-12T15:07:59.837Z,32.94
2018-07-12T15:10:27.172Z,32.38
2018-07-12T15:12:54.529Z,31.82
2018-07-12T15:15:21.756Z,31.80
2018-07-12T15:17:49.087Z,32.85
2018-07-12T15:20:16.486Z,32.59
2018-07-12T15:22:43.797Z,31.54
2018-07-12T15:25:11.125Z,31.83
2018-07-12T15:27:38.488Z,30.29
2018-07-12T15:30:05.836Z,30.52
2018-07-12T15:32:33.136Z,30.94
2018-07-12T15:35:00.448Z,30.99
2018-07-12T15:37:27.725Z,30.54
2018-07-12T15:39:55.045Z,31.57
2018-07-12T15:42:22.402Z,31.32
2018-07-12T15:44:49.678Z,30.83
2018-07-12T15:47:17.028Z,30.93
2018-07-12T15:52:23.037Z,31.00
2018-07-12T15:54:50.404Z,31.50
2018-07-12T15:57:17.727Z,30.03
2018-07-12T15:59:45.048Z,30.88
2018-07-12T16:02:12.371Z,29.63
2018-07-12T16:04:39.690Z,30.62
2018-07-12T16:07:07.021Z,31.64
2018-07-12T16:09:34.292Z,31.77
2018-07-12T16:12:01.552Z,30.92
2018-07-12T16:14:28.835Z,31.25
2018-07-12T16:16:56.085Z,31.50
2018-07-12T16:19:23.310Z,31.51
2018-07-12T16:21:50.719Z,30.90
2018-07-12T16:24:17.999Z,30.05
2018-07-12T16:26:45.300Z,30.76
2018-07-12T16:29:12.595Z,31.55
2018-07-12T16:31:39.904Z,31.70
2018-07-12T16:34:07.318Z,32.37
2018-07-12T16:36:34.626Z,30.84
2018-07-12T16:39:01.912Z,32.38
2018-07-12T16:41:29.260Z,32.15
2018-07-12T16:43:56.513Z,33.07
2018-07-12T16:46:23.882Z,33.30
2018-07-12T16:48:51.177Z,33.67
2018-07-12T16:51:18.519Z,32.82
2018-07-12T16:53:45.869Z,32.61
2018-07-12T16:56:13.099Z,32.94
2018-07-12T16:58:40.478Z,33.12
2018-07-12T17:01:07.710Z,33.77
2018-07-12T17:03:35.028Z,32.57
2018-07-12T17:06:02.338Z,32.79
2018-07-12T17:08:29.834Z,33.84
2018-07-12T17:10:57.173Z,34.16
2018-07-12T17:13:24.504Z,35.85
2018-07-12T17:15:51.896Z,35.99
2018-07-12T17:18:19.156Z,35.69
2018-07-12T17:20:46.499Z,36.38
2018-07-12T17:23:13.868Z,35.52
2018-07-12T17:25:41.211Z,36.61
2018-07-12T17:28:09.246Z,36.45
2018-07-12T17:30:36.532Z,35.95
2018-07-12T17:33:03.934Z,36.28
2018-07-12T17:35:31.316Z,36.35
2018-07-12T17:37:58.619Z,37.31
2018-07-12T17:40:25.927Z,37.12
2018-07-12T17:42:53.303Z,36.92
2018-07-12T17:45:20.540Z,37.54
2018-07-12T17:47:47.825Z,37.16
2018-07-12T17:50:15.050Z,37.79
2018-07-12T17:52:42.394Z,37.89
2018-07-12T17:55:09.631Z,38.88
2018-07-12T17:57:36.935Z,38.49
2018-07-12T18:00:04.346Z,38.57
2018-07-12T18:02:31.642Z,38.90
2018-07-12T18:04:59.037Z,37.96
2018-07-12T18:07:26.302Z,38.35
2018-07-12T18:09:53.644Z,38.24
2018-07-12T18:12:21.083Z,38.33
2018-07-12T18:14:48.625Z,38.80
2018-07-12T18:17:15.984Z,38.88
2018-07-12T18:19:43.321Z,39.62
2018-07-12T18:22:10.689Z,39.71
2018-07-12T18:24:37.900Z,40.91
2018-07-12T18:27:05.214Z,40.76
2018-07-12T18:29:32.524Z,40.02
2018-07-12T18:31:59.812Z,41.13
2018-07-12T18:34:27.074Z,40.40
2018-07-12T18:36:54.329Z,41.20
2018-07-12T18:39:21.675Z,41.21
2018-07-12T18:41:48.995Z,40.99
2018-07-12T18:44:16.254Z,41.70
2018-07-12T18:46:43.549Z,42.17
2018-07-12T18:49:10.846Z,41.66
2018-07-12T18:51:38.199Z,42.48
2018-07-12T18:54:05.483Z,42.56
2018-07-12T18:56:32.765Z,42.43
2018-07-12T18:59:00.062Z,43.32
2018-07-12T19:01:27.442Z,43.61
2018-07-12T19:03:54.819Z,43.15
2018-07-12T19:06:22.219Z,43.12
2018-07-12T19:08:49.636Z,43.57
2018-07-12T19:11:16.852Z,44.44
2018-07-12T19:13:44.446Z,44.04
2018-07-12T19:16:11.795Z,44.67
2018-07-12T19:18:39.044Z,45.81
2018-07-12T19:21:06.387Z,45.37
2018-07-12T19:23:33.757Z,45.40
2018-07-12T19:26:01.118Z,45.64
2018-07-12T19:28:28.466Z,45.71
2018-07-12T19:30:55.881Z,46.74
2018-07-12T19:33:23.189Z,46.37
2018-07-12T19:35:50.576Z,46.92
2018-07-12T19:38:17.927Z,47.57
2018-07-12T19:40:45.189Z,48.01
2018-07-12T19:43:12.448Z,48.54
2018-07-12T19:45:39.727Z,49.06
2018-07-12T19:48:07.028Z,48.80
2018-07-12T19:50:34.283Z,49.18
2018-07-12T19:53:01.577Z,49.25
2018-07-12T19:55:28.937Z,49.58
2018-07-12T19:57:56.263Z,49.67
2018-07-12T20:00:23.622Z,49.92
2018-07-12T20:05:28.184Z,50.16
2018-07-12T20:07:55.470Z,50.27
2018-07-12T20:10:22.847Z,50.76
2018-07-12T20:12:50.205Z,51.30
2018-07-12T20:15:17.509Z,51.63
2018-07-12T20:17:44.764Z,51.83
2018-07-12T20:20:11.987Z,51.92
2018-07-12T20:22:39.390Z,52.74
2018-07-12T20:25:06.715Z,52.66
2018-07-12T20:27:34.009Z,52.96
2018-07-12T20:30:01.386Z,53.17
2018-07-12T20:32:28.659Z,53.13
2018-07-12T20:34:56.015Z,53.74
2018-07-12T20:37:23.338Z,53.68
2018-07-12T20:39:50.722Z,53.77
2018-07-12T20:42:18.014Z,54.63
2018-07-12T20:44:45.604Z,54.61
2018-07-12T20:47:12.972Z,54.74
2018-07-12T20:49:40.323Z,54.90
2018-07-12T20:52:07.769Z,55.30
2018-07-12T20:54:35.121Z,55.64
2018-07-12T20:57:02.553Z,55.58
2018-07-12T20:59:29.958Z,55.99
2018-07-12T21:01:57.294Z,55.90
2018-07-12T21:04:24.688Z,55.90
2018-07-12T21:06:52.258Z,56.10
2018-07-12T21:09:19.660Z,56.23
2018-07-12T21:11:46.960Z,56.88
2018-07-12T21:14:14.267Z,56.94
2018-07-12T21:16:41.634Z,57.03
2018-07-12T21:19:09.008Z,57.13
2018-07-12T21:21:36.316Z,57.31
2018-07-12T21:24:03.630Z,57.77
2018-07-12T21:26:30.920Z,57.86
2018-07-12T21:28:58.295Z,58.09
2018-07-12T21:31:25.624Z,57.89
2018-07-12T21:33:52.964Z,58.44
2018-07-12T21:36:20.325Z,58.20
2018-07-12T21:38:47.617Z,58.65
2018-07-12T21:41:15.001Z,58.88
2018-07-12T21:43:42.300Z,58.83
2018-07-12T21:46:09.603Z,59.42
2018-07-12T21:48:36.963Z,59.45
2018-07-12T21:51:04.243Z,59.17
2018-07-12T21:53:31.766Z,59.95
2018-07-12T21:55:59.028Z,59.85
2018-07-12T21:58:26.464Z,59.92
2018-07-12T22:00:53.919Z,60.89
2018-07-12T22:03:21.215Z,60.63
2018-07-12T22:05:48.556Z,60.84
2018-07-12T22:08:22.434Z,60.73
2018-07-12T22:10:51.056Z,61.09
2018-07-12T22:13:19.844Z,61.06
2018-07-12T22:15:47.204Z,61.11
2018-07-12T22:18:14.518Z,61.82
2018-07-12T22:20:43.350Z,61.42
2018-07-12T22:23:10.732Z,61.53
2018-07-12T22:25:38.188Z,61.33
2018-07-12T22:28:05.633Z,61.50
2018-07-12T22:30:33.056Z,61.81
2018-07-12T22:33:01.923Z,62.62
2018-07-12T22:35:29.220Z,62.65
2018-07-12T22:37:57.352Z,62.48
2018-07-12T22:40:24.739Z,62.59
2018-07-12T22:42:52.067Z,62.46
2018-07-12T22:45:19.386Z,62.98
2018-07-12T22:47:46.699Z,62.94
2018-07-12T22:50:13.983Z,62.81
2018-07-12T22:52:41.321Z,62.82
2018-07-12T22:55:08.674Z,63.21
2018-07-12T22:57:36.159Z,62.37
2018-07-12T23:00:03.818Z,62.31
2018-07-12T23:02:31.166Z,62.39
2018-07-12T23:04:58.516Z,61.71
2018-07-12T23:07:25.836Z,61.87
2018-07-12T23:09:53.123Z,62.40
2018-07-12T23:12:20.528Z,61.62
2018-07-12T23:14:49.086Z,62.19
2018-07-12T23:17:16.471Z,61.98
2018-07-12T23:19:44.215Z,62.49
2018-07-12T23:22:11.563Z,62.10
2018-07-12T23:24:38.933Z,61.96
2018-07-12T23:27:06.212Z,62.45
2018-07-12T23:29:33.752Z,62.20
2018-07-12T23:32:01.151Z,62.48
2018-07-12T23:34:28.485Z,62.59
2018-07-12T23:36:55.768Z,63.04
2018-07-12T23:39:23.594Z,62.56
2018-07-12T23:41:51.010Z,62.41
2018-07-12T23:44:20.523Z,62.66
2018-07-12T23:46:47.913Z,63.64
2018-07-12T23:49:15.338Z,63.34
2018-07-12T23:51:42.659Z,63.60
2018-07-12T23:54:09.980Z,63.22
2018-07-12T23:56:37.275Z,63.99
2018-07-12T23:59:04.713Z,63.78
